Time;durP1;ratioP1;P1;durP2;ratioP2;P2;SDS_P1;SDS_P2;PMS_P1;PMS_P2;Temp;Humidity;BMP_temperature;BMP_pressure;BME280_temperature;BME280_humidity;BME280_pressure;Samples;Min_cycle;Max_cycle;Signal;HPM_P1;HPM_P2
2023/05/23 00:01:41;;;;;;;9.27;6.60;;;;;;;13.74;100.00;95820.63;5111524;27;20028;-70
2023/05/23 00:04:08;;;;;;;7.82;7.03;;;;;;;13.73;100.00;95815.53;5112728;27;20026;-70
2023/05/23 00:06:34;;;;;;;8.15;7.28;;;;;;;13.73;100.00;95819.00;5110090;27;20952;-70
2023/05/23 00:09:00;;;;;;;9.98;9.07;;;;;;;13.67;100.00;95827.56;5111128;27;20019;-71
2023/05/23 00:11:27;;;;;;;12.15;9.07;;;;;;;13.60;100.00;95821.25;5105168;27;20027;-70
2023/05/23 00:13:54;;;;;;;9.85;8.25;;;;;;;13.54;100.00;95820.06;5103306;27;20023;-70
2023/05/23 00:16:20;;;;;;;8.27;7.50;;;;;;;13.53;100.00;95820.22;5101697;27;20094;-70
2023/05/23 00:18:45;;;;;;;8.77;7.88;;;;;;;13.54;100.00;95822.72;5108502;27;20505;-70
2023/05/23 00:21:12;;;;;;;8.57;7.88;;;;;;;13.53;100.00;95826.34;5100633;27;20477;-71
2023/05/23 00:23:41;;;;;;;8.25;7.65;;;;;;;13.52;100.00;95827.31;5100286;27;20024;-70
2023/05/23 00:26:07;;;;;;;9.43;8.48;;;;;;;13.45;100.00;95824.47;5103601;27;20015;-69
2023/05/23 00:28:32;;;;;;;9.00;8.15;;;;;;;13.43;100.00;95830.91;5106612;27;20015;-70
2023/05/23 00:30:58;;;;;;;7.80;7.10;;;;;;;13.45;100.00;95835.06;5110748;27;20020;-70
2023/05/23 00:33:23;;;;;;;8.98;7.55;;;;;;;13.49;100.00;95826.81;5105989;27;20024;-70
2023/05/23 00:35:48;;;;;;;8.63;7.95;;;;;;;13.48;100.00;95830.44;5105506;27;20095;-70
2023/05/23 00:38:14;;;;;;;8.07;7.38;;;;;;;13.56;100.00;95835.75;5105747;27;20016;-70
2023/05/23 00:40:40;;;;;;;8.13;7.05;;;;;;;13.54;100.00;95837.72;5104222;27;20031;-70
2023/05/23 00:43:07;;;;;;;7.63;7.03;;;;;;;13.48;100.00;95841.81;5110291;27;20015;-70
2023/05/23 00:45:32;;;;;;;7.95;7.15;;;;;;;13.39;100.00;95834.81;5107563;27;20055;-70
2023/05/23 00:47:59;;;;;;;9.25;7.05;;;;;;;13.34;100.00;95832.63;5110363;27;20498;-70
2023/05/23 00:50:28;;;;;;;8.38;6.85;;;;;;;13.28;100.00;95830.63;5104222;28;20024;-70
2023/05/23 00:52:54;;;;;;;8.70;6.70;;;;;;;13.25;100.00;95826.44;5108598;27;20015;-70
2023/05/23 00:55:20;;;;;;;7.82;6.72;;;;;;;13.29;100.00;95833.13;5100879;28;20023;-70
2023/05/23 00:57:46;;;;;;;8.27;7.07;;;;;;;13.36;100.00;95835.94;5107845;27;20480;-70
2023/05/23 01:00:13;;;;;;;7.88;7.18;;;;;;;13.44;100.00;95837.84;5101913;28;20024;-70
2023/05/23 01:02:42;;;;;;;7.82;7.22;;;;;;;13.53;100.00;95844.84;5106356;27;20050;-70
2023/05/23 01:05:10;;;;;;;8.05;7.28;;;;;;;13.56;100.00;95843.69;5107483;27;20080;-70
2023/05/23 01:07:35;;;;;;;7.70;7.05;;;;;;;13.58;100.00;95839.06;5102629;27;20016;-70
2023/05/23 01:10:02;;;;;;;8.02;7.13;;;;;;;13.59;100.00;95838.09;5106681;27;20023;-70
2023/05/23 01:13:10;;;;;;;8.07;7.25;;;;;;;13.55;100.00;95840.22;5106145;27;20019;-70
2023/05/23 01:16:06;;;;;;;7.28;6.68;;;;;;;13.58;100.00;95844.38;5092294;27;20032;-70
2023/05/23 01:18:31;;;;;;;;;;;;;;;13.57;100.00;95842.72;5104366;28;20114;-70
2023/05/23 01:21:06;;;;;;;7.20;6.70;;;;;;;13.53;100.00;95846.66;5108707;27;19958;-70
2023/05/23 01:23:51;;;;;;;7.78;7.07;;;;;;;13.52;100.00;95847.63;5100131;28;20073;-70
2023/05/23 01:26:47;;;;;;;7.40;6.55;;;;;;;13.52;100.00;95847.63;5107601;28;20027;-70
2023/05/23 01:29:33;;;;;;;9.40;6.85;;;;;;;13.51;100.00;95841.53;5103379;27;20039;-70
2023/05/23 01:32:00;;;;;;;9.45;7.10;;;;;;;13.51;100.00;95845.97;5110538;27;20087;-70
2023/05/23 01:34:27;;;;;;;6.93;6.32;;;;;;;13.54;100.00;95843.03;5103337;27;20034;-71
2023/05/23 01:36:54;;;;;;;8.80;6.78;;;;;;;13.61;100.00;95846.72;5103979;28;20027;-70
2023/05/23 01:39:21;;;;;;;8.38;6.40;;;;;;;13.51;100.00;95840.69;5105809;28;20031;-70
2023/05/23 01:41:48;;;;;;;7.70;7.03;;;;;;;13.40;100.00;95841.75;5107741;27;20028;-70
2023/05/23 01:44:14;;;;;;;7.30;6.68;;;;;;;13.38;100.00;95849.88;5108848;28;20027;-71
2023/05/23 01:46:40;;;;;;;7.22;6.65;;;;;;;13.42;100.00;95851.22;5112216;28;20058;-71
2023/05/23 01:49:08;;;;;;;7.75;7.05;;;;;;;13.44;100.00;95849.25;5107165;28;20379;-70
2023/05/23 01:51:35;;;;;;;7.55;6.57;;;;;;;13.46;100.00;95841.16;5101116;28;20031;-70
2023/05/23 01:54:00;;;;;;;7.50;6.80;;;;;;;13.46;100.00;95842.00;5105925;28;20019;-70
2023/05/23 01:56:27;;;;;;;7.47;6.88;;;;;;;13.45;100.00;95842.13;5101161;28;20042;-70
2023/05/23 01:58:53;;;;;;;7.18;6.57;;;;;;;13.43;100.00;95838.81;5106661;28;20128;-71
2023/05/23 02:01:19;;;;;;;7.32;6.50;;;;;;;13.43;100.00;95846.75;5103196;28;20519;-70
2023/05/23 02:03:44;;;;;;;7.05;6.45;;;;;;;13.39;100.00;95830.38;5109609;28;20490;-70
2023/05/23 02:06:10;;;;;;;7.45;6.63;;;;;;;13.36;100.00;95833.28;5106853;27;20037;-70
2023/05/23 02:08:35;;;;;;;8.45;6.50;;;;;;;13.32;100.00;95839.88;5089256;28;20130;-70
2023/05/23 02:11:00;;;;;;;8.98;6.82;;;;;;;13.25;100.00;95829.09;5111199;27;20029;-70
2023/05/23 02:13:26;;;;;;;7.07;6.47;;;;;;;13.16;100.00;95835.31;5107328;27;20500;-70
2023/05/23 02:15:51;;;;;;;7.45;6.80;;;;;;;13.08;100.00;95835.28;5107625;27;20012;-70
2023/05/23 02:18:17;;;;;;;9.32;7.30;;;;;;;13.02;100.00;95836.72;5112193;27;20073;-70
2023/05/23 02:20:42;;;;;;;7.70;7.10;;;;;;;12.97;100.00;95831.88;5104144;27;20028;-70
2023/05/23 02:23:09;;;;;;;7.80;7.07;;;;;;;12.96;100.00;95842.63;5083808;28;20066;-70
2023/05/23 02:25:34;;;;;;;8.20;7.50;;;;;;;12.95;100.00;95844.41;5109157;27;20560;-70
2023/05/23 02:28:00;;;;;;;7.32;6.72;;;;;;;12.94;100.00;95853.34;5114131;27;20027;-70
2023/05/23 02:30:25;;;;;;;8.07;7.38;;;;;;;12.85;100.00;95848.97;5108831;28;20024;-70
2023/05/23 02:32:51;;;;;;;7.60;6.90;;;;;;;12.83;100.00;95857.03;5108893;27;20686;-70
2023/05/23 02:35:16;;;;;;;8.80;7.93;;;;;;;12.85;100.00;95857.72;5109043;27;20026;-70
2023/05/23 02:37:41;;;;;;;8.20;7.43;;;;;;;12.85;100.00;95854.25;5111893;27;20015;-70
2023/05/23 02:40:07;;;;;;;8.02;7.38;;;;;;;12.85;100.00;95860.34;5108836;27;20015;-70
2023/05/23 02:42:33;;;;;;;7.70;6.97;;;;;;;12.89;100.00;95860.91;5107681;27;20890;-70
2023/05/23 02:44:59;;;;;;;8.18;7.40;;;;;;;12.91;100.00;95866.84;5115492;27;20495;-70
2023/05/23 02:47:24;;;;;;;9.32;7.82;;;;;;;12.93;100.00;95864.88;5108374;27;20048;-70
2023/05/23 02:49:49;;;;;;;9.77;8.00;;;;;;;12.94;100.00;95868.38;5089697;27;20031;-70
2023/05/23 02:52:15;;;;;;;8.07;7.38;;;;;;;12.95;100.00;95872.69;5106317;27;20035;-70
2023/05/23 02:54:41;;;;;;;10.68;7.47;;;;;;;12.98;100.00;95875.81;5109873;27;20065;-68
2023/05/23 02:57:07;;;;;;;8.00;7.30;;;;;;;13.00;100.00;95879.13;5117557;27;20051;-70
2023/05/23 02:59:32;;;;;;;8.70;7.45;;;;;;;13.02;100.00;95882.47;5109978;27;20099;-70
2023/05/23 03:01:58;;;;;;;7.70;7.10;;;;;;;13.03;100.00;95873.53;5113023;27;20026;-70
2023/05/23 03:04:24;;;;;;;8.30;7.70;;;;;;;13.05;100.00;95886.63;5107555;27;20020;-70
2023/05/23 03:06:53;;;;;;;8.57;7.78;;;;;;;13.09;100.00;95885.31;5112773;27;20027;-70
2023/05/23 03:09:19;;;;;;;10.70;7.68;;;;;;;13.07;100.00;95874.06;5104650;27;20020;-69
2023/05/23 03:11:44;;;;;;;8.15;7.35;;;;;;;13.08;100.00;95882.84;5109330;27;20022;-70
2023/05/23 03:14:10;;;;;;;7.93;7.22;;;;;;;13.08;100.00;95881.03;5105199;27;20103;-69
2023/05/23 03:16:35;;;;;;;7.75;7.10;;;;;;;13.12;100.00;95882.38;5108055;27;20024;-70
2023/05/23 03:19:00;;;;;;;8.13;7.35;;;;;;;13.19;100.00;95882.59;5109658;27;20023;-70
2023/05/23 03:21:26;;;;;;;8.10;7.53;;;;;;;13.21;100.00;95887.75;5093194;28;20060;-69
2023/05/23 03:23:51;;;;;;;8.45;7.63;;;;;;;13.18;100.00;95889.72;5113442;27;20042;-70
2023/05/23 03:26:17;;;;;;;10.10;7.63;;;;;;;13.20;100.00;95892.19;5104748;27;20049;-69
2023/05/23 03:28:42;;;;;;;7.90;7.30;;;;;;;13.25;100.00;95897.03;5113780;27;20022;-69
2023/05/23 03:31:08;;;;;;;8.02;6.93;;;;;;;13.23;100.00;95897.16;5112210;27;20287;-69
2023/05/23 03:33:33;;;;;;;8.43;7.72;;;;;;;13.28;100.00;95902.00;5108184;27;20057;-70
2023/05/23 03:35:59;;;;;;;8.68;7.88;;;;;;;13.29;100.00;95904.50;5109130;27;20073;-69
2023/05/23 03:38:25;;;;;;;8.50;7.80;;;;;;;13.32;100.00;95895.41;5105366;27;20028;-70
2023/05/23 03:40:50;;;;;;;8.55;7.85;;;;;;;13.28;100.00;95888.78;5109389;27;20547;-70
2023/05/23 03:43:16;;;;;;;8.35;7.53;;;;;;;13.28;100.00;95894.91;5104249;27;20092;-70
2023/05/23 03:45:41;;;;;;;8.15;7.45;;;;;;;13.25;100.00;95889.09;5107570;27;20485;-69
2023/05/23 03:48:06;;;;;;;8.48;7.65;;;;;;;13.20;100.00;95894.00;5113601;27;20120;-70
2023/05/23 03:50:32;;;;;;;8.65;7.85;;;;;;;13.17;100.00;95895.13;5102350;27;20110;-69
2023/05/23 03:52:57;;;;;;;9.07;8.23;;;;;;;13.14;100.00;95896.25;5110314;27;20031;-69
2023/05/23 03:55:24;;;;;;;8.30;7.57;;;;;;;13.13;100.00;95884.03;5107701;28;20024;-70
2023/05/23 03:57:50;;;;;;;7.60;7.00;;;;;;;13.16;100.00;95885.56;5102430;27;20404;-70
2023/05/23 04:00:17;;;;;;;8.50;7.50;;;;;;;13.24;100.00;95890.06;5104092;27;20016;-69
2023/05/23 04:02:44;;;;;;;8.02;7.30;;;;;;;13.24;100.00;95893.53;5108673;27;20020;-69
2023/05/23 04:05:10;;;;;;;8.75;8.05;;;;;;;13.23;100.00;95889.22;5108341;27;20099;-70
2023/05/23 04:07:36;;;;;;;7.90;7.28;;;;;;;13.20;100.00;95889.53;5108951;27;20085;-69
2023/05/23 04:10:02;;;;;;;8.43;7.68;;;;;;;13.16;100.00;95891.69;5107626;27;20026;-69
2023/05/23 04:12:31;;;;;;;11.48;7.88;;;;;;;13.21;100.00;95888.56;5107790;27;20028;-68
2023/05/23 04:14:57;;;;;;;8.52;7.40;;;;;;;13.24;100.00;95887.44;5116337;27;20019;-70
2023/05/23 04:17:23;;;;;;;8.60;7.50;;;;;;;13.26;100.00;95888.09;5111592;27;20148;-69
2023/05/23 04:19:50;;;;;;;8.45;7.80;;;;;;;13.30;100.00;95889.44;5111494;27;20080;-71
2023/05/23 04:22:15;;;;;;;8.70;7.78;;;;;;;13.30;100.00;95886.81;5106469;27;20027;-70
2023/05/23 04:24:41;;;;;;;9.63;8.07;;;;;;;13.27;100.00;95880.03;5102942;27;20020;-70
2023/05/23 04:27:07;;;;;;;8.18;7.57;;;;;;;13.21;100.00;95879.81;5109010;27;20016;-69
2023/05/23 04:29:34;;;;;;;8.48;7.63;;;;;;;13.17;100.00;95880.13;5098991;27;20081;-71
2023/05/23 04:32:00;;;;;;;9.05;8.15;;;;;;;13.21;100.00;95887.75;5109259;27;20027;-70
2023/05/23 04:34:26;;;;;;;8.43;7.72;;;;;;;13.25;100.00;95886.44;5093087;28;20057;-71
2023/05/23 04:36:52;;;;;;;8.85;7.95;;;;;;;13.30;100.00;95890.28;5103861;27;20048;-69
2023/05/23 04:39:18;;;;;;;8.30;7.60;;;;;;;13.32;100.00;95887.47;5091194;28;20553;-70
2023/05/23 04:41:44;;;;;;;8.65;7.65;;;;;;;13.33;100.00;95894.44;5102273;27;20028;-70
2023/05/23 04:44:10;;;;;;;8.50;7.80;;;;;;;13.36;100.00;95904.69;5105686;27;20020;-70
2023/05/23 04:46:35;;;;;;;8.52;7.72;;;;;;;13.42;100.00;95901.44;5101070;27;20040;-70
2023/05/23 04:49:02;;;;;;;8.73;7.75;;;;;;;13.48;100.00;95899.19;5103039;27;20639;-69
2023/05/23 04:51:28;;;;;;;8.35;7.55;;;;;;;13.56;100.00;95905.38;5104594;27;20023;-70
2023/05/23 04:53:54;;;;;;;8.35;7.65;;;;;;;13.65;100.00;95902.78;5107489;27;20027;-70
2023/05/23 04:56:19;;;;;;;9.75;8.25;;;;;;;13.68;100.00;95898.00;5099777;27;20111;-70
2023/05/23 04:58:46;;;;;;;8.02;7.35;;;;;;;13.71;100.00;95896.88;5105674;27;20036;-70
2023/05/23 05:01:12;;;;;;;8.38;7.38;;;;;;;13.74;100.00;95894.72;5090902;28;20023;-70
2023/05/23 05:03:38;;;;;;;8.30;7.45;;;;;;;13.75;100.00;95891.09;5103585;27;20028;-69
2023/05/23 05:06:04;;;;;;;9.90;7.75;;;;;;;13.73;100.00;95892.25;5110017;27;20027;-69
2023/05/23 05:08:30;;;;;;;8.05;7.43;;;;;;;13.70;100.00;95889.91;5101701;27;20143;-70
2023/05/23 05:10:55;;;;;;;7.40;6.63;;;;;;;13.68;100.00;95890.06;5107786;27;20059;-69
2023/05/23 05:13:21;;;;;;;7.53;6.82;;;;;;;13.74;100.00;95892.06;5110718;27;20031;-70
2023/05/23 05:15:46;;;;;;;8.05;7.43;;;;;;;13.78;100.00;95889.97;5100325;28;20426;-69
2023/05/23 05:18:12;;;;;;;8.95;7.35;;;;;;;13.79;100.00;95890.78;5110160;28;20495;-70
2023/05/23 05:20:38;;;;;;;8.15;7.43;;;;;;;13.75;100.00;95890.28;5106969;27;20031;-69
2023/05/23 05:23:03;;;;;;;7.97;7.18;;;;;;;13.76;100.00;95884.00;5102044;27;20026;-69
2023/05/23 05:25:31;;;;;;;8.52;7.60;;;;;;;13.79;100.00;95888.13;5104064;28;20036;-70
2023/05/23 05:28:05;;;;;;;8.30;7.60;;;;;;;13.93;100.00;95879.59;5111492;27;20027;-70
2023/05/23 05:30:34;;;;;;;7.95;6.82;;;;;;;14.12;100.00;95880.34;5102093;27;20020;-69
2023/05/23 05:33:01;;;;;;;8.27;7.38;;;;;;;14.17;100.00;95881.53;5107179;27;20050;-70
2023/05/23 05:35:26;;;;;;;7.85;6.95;;;;;;;14.23;100.00;95882.69;5106248;27;20066;-70
2023/05/23 05:37:52;;;;;;;7.50;6.90;;;;;;;14.34;100.00;95881.56;5108772;27;20103;-69
2023/05/23 05:40:17;;;;;;;7.40;6.90;;;;;;;14.37;100.00;95880.44;5103714;28;20090;-70
2023/05/23 05:42:43;;;;;;;7.93;7.10;;;;;;;14.36;100.00;95878.78;5106844;28;20019;-70
2023/05/23 05:45:10;;;;;;;8.75;6.82;;;;;;;14.45;100.00;95883.09;5114279;27;20055;-70
2023/05/23 05:47:37;;;;;;;8.10;7.20;;;;;;;14.53;100.00;95875.19;5110173;28;20085;-69
2023/05/23 05:50:04;;;;;;;7.22;6.63;;;;;;;14.51;100.00;95876.34;5100871;28;20035;-69
2023/05/23 05:52:30;;;;;;;7.55;6.88;;;;;;;14.53;100.00;95880.50;5103554;28;20142;-69
2023/05/23 05:54:56;;;;;;;8.63;7.35;;;;;;;14.71;100.00;95882.22;5100001;28;20066;-69
2023/05/23 05:57:22;;;;;;;7.85;7.25;;;;;;;14.94;100.00;95876.28;5110324;28;20024;-71
2023/05/23 05:59:47;;;;;;;8.77;6.93;;;;;;;15.17;100.00;95879.09;5102578;28;20027;-71
2023/05/23 06:02:13;;;;;;;7.63;6.93;;;;;;;15.40;100.00;95878.41;5104952;28;20012;-70
2023/05/23 06:04:38;;;;;;;8.52;7.03;;;;;;;15.57;100.00;95880.03;5112911;28;20253;-71
2023/05/23 06:07:04;;;;;;;7.65;6.80;;;;;;;15.71;100.00;95877.72;5107669;28;20483;-70
2023/05/23 06:09:29;;;;;;;6.78;6.28;;;;;;;15.85;100.00;95873.53;5107061;28;20027;-72
2023/05/23 06:11:55;;;;;;;8.25;7.53;;;;;;;15.96;100.00;95872.34;5103385;28;20027;-70
2023/05/23 06:14:20;;;;;;;7.57;6.90;;;;;;;16.09;100.00;95866.50;5114326;28;20072;-74
2023/05/23 06:16:45;;;;;;;7.07;6.40;;;;;;;16.25;100.00;95873.56;5106110;28;20595;-73
2023/05/23 06:19:11;;;;;;;7.15;6.57;;;;;;;16.39;100.00;95858.72;5110195;28;20430;-73
2023/05/23 06:21:36;;;;;;;8.90;6.30;;;;;;;16.57;100.00;95850.47;5082475;28;20500;-74
2023/05/23 06:24:02;;;;;;;6.95;6.30;;;;;;;16.78;100.00;95843.69;5105297;28;20022;-74
2023/05/23 06:26:30;;;;;;;7.20;6.60;;;;;;;16.96;100.00;95843.41;5099216;28;20123;-74
2023/05/23 06:28:56;;;;;;;6.68;6.07;;;;;;;17.00;100.00;95836.75;5108436;28;20024;-74
2023/05/23 06:31:23;;;;;;;6.80;6.25;;;;;;;17.15;100.00;95840.28;5101973;28;20035;-74
2023/05/23 06:33:49;;;;;;;6.97;6.43;;;;;;;17.23;100.00;95835.88;5101940;28;20153;-75
2023/05/23 06:36:15;;;;;;;7.00;6.30;;;;;;;17.46;100.00;95836.66;5106166;28;20052;-74
2023/05/23 06:38:40;;;;;;;6.43;5.93;;;;;;;17.72;100.00;95826.59;5106059;28;20047;-74
2023/05/23 06:41:06;;;;;;;6.00;5.50;;;;;;;18.04;100.00;95835.22;5109478;27;20118;-74
2023/05/23 06:43:31;;;;;;;6.25;5.75;;;;;;;18.43;100.00;95827.88;5107399;28;20050;-74
2023/05/23 06:45:56;;;;;;;6.15;5.75;;;;;;;18.69;100.00;95826.53;5102452;28;20697;-74
2023/05/23 06:48:22;;;;;;;7.75;7.05;;;;;;;19.09;100.00;95823.44;5097271;28;20024;-73
2023/05/23 06:50:48;;;;;;;13.18;7.35;;;;;;;19.45;100.00;95817.13;5107603;28;20443;-75
2023/05/23 06:53:15;;;;;;;6.57;5.75;;;;;;;19.79;100.00;95814.69;5103237;28;20023;-75
2023/05/23 06:55:40;;;;;;;7.53;5.55;;;;;;;19.91;100.00;95805.13;5113137;27;20455;-73
2023/05/23 06:58:06;;;;;;;7.53;6.70;;;;;;;19.86;100.00;95799.53;5109396;27;20030;-76
2023/05/23 07:00:31;;;;;;;5.82;4.97;;;;;;;20.27;100.00;95805.88;5110719;27;20035;-76
2023/05/23 07:03:02;;;;;;;7.43;5.72;;;;;;;20.48;100.00;95799.59;5115097;27;20034;-76
2023/05/23 07:05:27;;;;;;;8.20;5.57;;;;;;;20.55;100.00;95789.72;5092338;28;20066;-75
2023/05/23 07:07:53;;;;;;;5.28;4.85;;;;;;;20.48;100.00;95788.88;5106779;27;20036;-73
2023/05/23 07:10:18;;;;;;;5.97;5.57;;;;;;;20.76;100.00;95790.56;5106907;27;20024;-75
2023/05/23 07:12:45;;;;;;;7.25;5.63;;;;;;;20.70;100.00;95781.50;5112188;27;20444;-75
2023/05/23 07:15:10;;;;;;;6.05;5.55;;;;;;;20.81;100.00;95788.13;5103895;27;20491;-75
2023/05/23 07:17:36;;;;;;;6.25;5.68;;;;;;;21.07;100.00;95788.38;5104595;27;20024;-75
2023/05/23 07:20:03;;;;;;;6.70;6.10;;;;;;;21.39;100.00;95776.00;5104924;27;20389;-73
2023/05/23 07:22:29;;;;;;;5.80;5.40;;;;;;;21.42;100.00;95777.41;5103958;27;20047;-75
2023/05/23 07:24:55;;;;;;;6.10;5.60;;;;;;;21.22;100.00;95778.28;5110567;27;20032;-75
2023/05/23 07:27:20;;;;;;;5.90;5.40;;;;;;;21.58;100.00;95776.97;5105990;27;20628;-75
2023/05/23 07:29:46;;;;;;;7.00;5.97;;;;;;;21.71;100.00;95773.47;5105084;27;20027;-75
2023/05/23 07:32:11;;;;;;;5.75;5.35;;;;;;;21.50;100.00;95766.50;5113186;27;20064;-74
2023/05/23 07:34:37;;;;;;;7.15;6.55;;;;;;;21.59;100.00;95772.47;5104511;27;20099;-75
2023/05/23 07:37:02;;;;;;;6.65;6.15;;;;;;;21.54;100.00;95775.75;5108507;27;20030;-76
2023/05/23 07:39:28;;;;;;;7.32;5.78;;;;;;;22.19;100.00;95768.75;5109753;27;20081;-76
2023/05/23 07:41:53;;;;;;;9.18;5.57;;;;;;;22.38;100.00;95755.47;5110715;27;20034;-75
2023/05/23 07:44:19;;;;;;;6.22;5.82;;;;;;;22.55;100.00;95753.94;5107457;27;20039;-75
2023/05/23 07:46:44;;;;;;;6.32;5.70;;;;;;;22.23;100.00;95748.53;5106345;27;20047;-75
2023/05/23 07:49:10;;;;;;;6.60;5.80;;;;;;;22.18;100.00;95754.53;5104112;27;20024;-75
2023/05/23 07:51:35;;;;;;;7.13;5.35;;;;;;;22.14;100.00;95756.00;5107987;27;20411;-75
2023/05/23 07:54:01;;;;;;;6.28;5.80;;;;;;;21.77;100.00;95760.25;5102550;27;20028;-75
2023/05/23 07:56:26;;;;;;;5.75;5.35;;;;;;;22.77;100.00;95766.19;5081615;28;20038;-75
2023/05/23 07:58:52;;;;;;;6.47;5.97;;;;;;;23.00;100.00;95744.13;5108371;27;20036;-76
2023/05/23 08:01:18;;;;;;;6.10;5.50;;;;;;;23.15;100.00;95731.19;5105886;27;20450;-75
2023/05/23 08:03:43;;;;;;;5.78;5.28;;;;;;;23.75;100.00;95727.06;5105218;27;20070;-74
2023/05/23 08:06:09;;;;;;;6.72;5.90;;;;;;;23.44;100.00;95722.69;5105026;27;20063;-76
2023/05/23 08:08:37;;;;;;;6.20;5.40;;;;;;;23.40;100.00;95725.00;5111058;27;20035;-75
2023/05/23 08:11:03;;;;;;;6.40;5.45;;;;;;;23.29;100.00;95733.78;5095484;28;20707;-75
2023/05/23 08:13:29;;;;;;;6.72;6.22;;;;;;;23.65;100.00;95718.72;5111746;27;20247;-75
2023/05/23 08:15:55;;;;;;;6.18;5.68;;;;;;;23.40;100.00;95722.31;5104155;27;20396;-74
2023/05/23 08:18:20;;;;;;;5.88;5.30;;;;;;;23.92;100.00;95714.91;5102441;27;20144;-75
2023/05/23 08:20:46;;;;;;;6.18;5.60;;;;;;;23.56;100.00;95709.34;5113555;27;20027;-75
2023/05/23 08:23:12;;;;;;;6.28;5.75;;;;;;;23.36;100.00;95712.22;5104751;27;20148;-75
2023/05/23 08:25:38;;;;;;;5.65;5.25;;;;;;;23.68;100.00;95710.22;5104207;27;20030;-75
2023/05/23 08:28:03;;;;;;;6.25;5.75;;;;;;;23.66;100.00;95709.63;5109099;27;20034;-74
2023/05/23 08:30:32;;;;;;;7.20;5.55;;;;;;;24.01;100.00;95706.34;5107749;27;20036;-75
2023/05/23 08:33:03;;;;;;;6.45;5.22;;;;;;;24.11;100.00;95699.59;5104531;27;20035;-75
2023/05/23 08:35:32;;;;;;;5.68;5.25;;;;;;;24.62;100.00;95697.41;5104730;27;20095;-74
2023/05/23 08:37:58;;;;;;;5.78;5.38;;;;;;;24.66;100.00;95695.09;5103748;27;20043;-74
2023/05/23 08:40:28;;;;;;;5.53;5.13;;;;;;;24.50;100.00;95681.25;5102516;27;20024;-75
2023/05/23 08:42:53;;;;;;;5.75;5.28;;;;;;;24.22;100.00;95696.16;5114524;27;20074;-73
2023/05/23 08:45:19;;;;;;;5.30;4.90;;;;;;;24.29;100.00;95686.09;5109636;27;20024;-75
2023/05/23 08:47:46;;;;;;;5.57;5.15;;;;;;;24.65;100.00;95683.50;5102457;28;20035;-75
2023/05/23 08:50:16;;;;;;;6.35;5.60;;;;;;;24.72;100.00;95672.63;5109181;27;20032;-74
2023/05/23 08:52:57;;;;;;;5.43;5.00;;;;;;;25.30;100.00;95683.66;5105293;27;20671;-74
2023/05/23 08:55:27;;;;;;;5.55;5.15;;;;;;;24.69;100.00;95665.81;5108433;27;20024;-75
2023/05/23 08:57:59;;;;;;;5.57;5.18;;;;;;;24.51;100.00;95684.75;5112137;27;20028;-74
2023/05/23 09:00:26;;;;;;;5.72;5.05;;;;;;;24.13;100.00;95681.38;5102858;27;20408;-74
2023/05/23 09:02:53;;;;;;;5.75;5.25;;;;;;;24.65;100.00;95686.19;5110427;27;20015;-74
2023/05/23 09:05:19;;;;;;;6.40;5.20;;;;;;;25.26;100.00;95679.78;5100779;27;20032;-76
2023/05/23 09:07:49;;;;;;;5.82;5.38;;;;;;;24.90;100.00;95679.81;5108578;27;20055;-75
2023/05/23 09:10:16;;;;;;;5.88;5.38;;;;;;;24.77;100.00;95686.22;5111181;27;20039;-76
2023/05/23 09:12:42;;;;;;;7.18;5.40;;;;;;;25.70;100.00;95679.41;5099411;27;20032;-75
2023/05/23 09:15:09;;;;;;;6.15;5.55;;;;;;;25.48;100.00;95676.53;5106221;27;20038;-75
2023/05/23 09:17:35;;;;;;;7.03;5.90;;;;;;;25.11;100.00;95669.50;5100588;28;20075;-75
2023/05/23 09:20:01;;;;;;;7.13;5.55;;;;;;;25.36;100.00;95674.66;5105552;27;20454;-75
2023/05/23 09:22:27;;;;;;;6.28;5.68;;;;;;;24.79;100.00;95667.16;5109021;27;20038;-76
2023/05/23 09:24:56;;;;;;;6.38;5.85;;;;;;;24.48;100.00;95687.91;5104252;27;20114;-76
2023/05/23 09:27:22;;;;;;;5.95;5.50;;;;;;;24.57;100.00;95683.84;5105603;27;20641;-75
2023/05/23 09:29:48;;;;;;;6.03;5.13;;;;;;;25.07;100.00;95679.13;5108325;27;20872;-75
2023/05/23 09:32:19;;;;;;;7.20;5.80;;;;;;;25.42;100.00;95672.84;5107638;27;20496;-76
2023/05/23 09:34:56;;;;;;;7.80;5.07;;;;;;;26.14;100.00;95658.16;5099490;28;20055;-75
2023/05/23 09:37:30;;;;;;;7.03;5.55;;;;;;;26.36;100.00;95648.56;5105215;27;20024;-76
2023/05/23 09:39:57;;;;;;;5.88;5.47;;;;;;;26.18;100.00;95647.72;5105345;28;20052;-76
2023/05/23 09:42:23;;;;;;;8.20;4.88;;;;;;;26.42;100.00;95634.91;5108380;28;20081;-76
2023/05/23 09:44:49;;;;;;;5.82;5.32;;;;;;;26.38;100.00;95638.34;5118298;27;20110;-76
2023/05/23 09:47:15;;;;;;;5.57;5.15;;;;;;;26.13;100.00;95651.13;5100871;27;20087;-76
2023/05/23 09:49:45;;;;;;;5.70;5.18;;;;;;;26.38;100.00;95651.84;5109443;28;20023;-75
2023/05/23 09:52:11;;;;;;;5.45;5.03;;;;;;;26.53;100.00;95638.59;5105714;27;20035;-75
2023/05/23 09:54:37;;;;;;;6.78;4.80;;;;;;;26.04;100.00;95644.47;5105944;28;20108;-74
2023/05/23 09:57:04;;;;;;;5.13;4.72;;;;;;;26.58;100.00;95641.38;5103998;28;20019;-75
2023/05/23 09:59:33;;;;;;;5.72;5.22;;;;;;;25.42;100.00;95648.59;5099297;28;20028;-75
2023/05/23 10:02:02;;;;;;;5.78;5.28;;;;;;;25.54;100.00;95649.44;5110236;28;20031;-76
2023/05/23 10:04:30;;;;;;;5.97;5.47;;;;;;;25.80;100.00;95646.44;5111361;28;20027;-74
2023/05/23 10:07:01;;;;;;;5.88;5.38;;;;;;;26.19;100.00;95622.38;5104639;28;20479;-76
2023/05/23 10:09:32;;;;;;;6.13;5.22;;;;;;;26.00;100.00;95613.66;5104152;28;20028;-75
2023/05/23 10:12:39;;;;;;;5.75;5.10;;;;;;;26.52;100.00;95601.03;5100699;28;20115;-75
2023/05/23 10:15:07;;;;;;;5.25;4.85;;;;;;;26.49;100.00;95588.88;5101181;28;20038;-75
2023/05/23 10:17:56;;;;;;;9.55;5.50;;;;;;;27.40;100.00;95583.38;5102799;28;20024;-74
2023/05/23 10:20:24;;;;;;;6.72;5.32;;;;;;;26.70;100.00;95581.09;5106441;28;20039;-75
2023/05/23 10:22:50;;;;;;;6.00;5.45;;;;;;;25.82;100.00;95583.13;5111812;28;20114;-76
2023/05/23 10:25:16;;;;;;;5.57;5.07;;;;;;;26.62;100.00;95595.00;5104497;28;20060;-74
2023/05/23 10:27:42;;;;;;;5.80;5.30;;;;;;;27.16;100.00;95576.34;5106196;28;20028;-76
2023/05/23 10:30:08;;;;;;;5.90;5.43;;;;;;;27.08;100.00;95590.31;5112903;27;20445;-75
2023/05/23 10:32:37;;;;;;;6.25;5.63;;;;;;;27.10;100.00;95588.19;5107729;27;20110;-76
2023/05/23 10:35:24;;;;;;;6.35;5.88;;;;;;;27.20;100.00;95583.97;5109108;27;20036;-76
2023/05/23 10:38:00;;;;;;;6.25;5.75;;;;;;;27.53;100.00;95574.94;5104692;27;20023;-78
2023/05/23 10:41:04;;;;;;;6.60;6.10;;;;;;;27.82;100.00;95573.91;5119488;27;20616;-76
2023/05/23 10:43:41;;;;;;;6.43;5.93;;;;;;;27.69;100.00;95567.00;5072928;28;20046;-74
2023/05/23 10:46:08;;;;;;;6.40;5.88;;;;;;;28.19;100.00;95575.91;5110137;27;20040;-76
2023/05/23 10:48:39;;;;;;;7.65;6.85;;;;;;;27.78;100.00;95575.47;5113190;27;20032;-75
2023/05/23 10:51:16;;;;;;;6.97;6.38;;;;;;;28.54;100.00;95579.97;5111121;27;20031;-74
2023/05/23 10:53:43;;;;;;;8.27;6.75;;;;;;;26.95;100.00;95577.16;5112484;27;20452;-74
2023/05/23 10:56:10;;;;;;;7.45;6.40;;;;;;;25.98;100.00;95599.59;5112372;27;20045;-79
2023/05/23 10:58:38;;;;;;;7.13;6.43;;;;;;;25.58;100.00;95609.38;5106137;27;20404;-77
2023/05/23 11:01:08;;;;;;;7.00;6.28;;;;;;;25.57;100.00;95602.34;5106345;27;20061;-77
2023/05/23 11:03:47;;;;;;;7.10;6.43;;;;;;;25.05;100.00;95609.31;5112589;27;20043;-79
2023/05/23 11:06:37;;;;;;;7.45;6.80;;;;;;;26.05;100.00;95599.44;5102709;27;20035;-77
2023/05/23 11:09:09;;;;;;;6.97;5.85;;;;;;;26.77;100.00;95556.63;5117178;27;20054;-76
2023/05/23 11:11:52;;;;;;;6.03;5.53;;;;;;;27.03;100.00;95564.03;5112485;27;20024;-76
2023/05/23 11:14:33;;;;;;;7.43;6.80;;;;;;;27.71;100.00;95562.97;5112003;27;20542;-76
2023/05/23 11:17:29;;;;;;;7.50;6.90;;;;;;;27.74;100.00;95546.25;5109031;27;20074;-75
2023/05/23 11:19:58;;;;;;;7.18;6.32;;;;;;;27.42;100.00;95541.53;5105714;27;20048;-76
2023/05/23 11:22:28;;;;;;;7.35;6.70;;;;;;;27.57;100.00;95545.53;5104857;28;20563;-79
2023/05/23 11:24:55;;;;;;;6.78;6.18;;;;;;;28.16;100.00;95527.69;5096135;27;20027;-78
2023/05/23 11:27:33;;;;;;;11.52;6.90;;;;;;;28.74;100.00;95535.97;5111565;27;20032;-76